createdAt,value
2018-11-03T00:00:19.244Z,1022.49
2018-11-03T00:01:19.181Z,1022.49
2018-11-03T00:02:19.172Z,1022.43
2018-11-03T00:03:19.348Z,1022.43
2018-11-03T00:04:19.201Z,1022.45
2018-11-03T00:05:19.176Z,1022.47
2018-11-03T00:06:19.127Z,1022.48
2018-11-03T00:07:19.142Z,1022.45
2018-11-03T00:08:19.141Z,1022.46
2018-11-03T00:09:19.129Z,1022.45
2018-11-03T00:10:19.086Z,1022.41
2018-11-03T00:11:19.190Z,1022.42
2018-11-03T00:12:19.105Z,1022.43
2018-11-03T00:13:19.052Z,1022.41
2018-11-03T00:14:19.097Z,1022.41
2018-11-03T00:15:19.040Z,1022.41
2018-11-03T00:16:19.017Z,1022.43
2018-11-03T00:17:19.083Z,1022.40
2018-11-03T00:18:18.994Z,1022.42
2018-11-03T00:19:19.011Z,1022.38
2018-11-03T00:20:18.972Z,1022.40
2018-11-03T00:21:18.961Z,1022.45
2018-11-03T00:22:18.958Z,1022.44
2018-11-03T00:23:19.032Z,1022.48
2018-11-03T00:24:18.976Z,1022.45
2018-11-03T00:25:18.921Z,1022.43
2018-11-03T00:26:18.917Z,1022.42
2018-11-03T00:27:18.977Z,1022.39
2018-11-03T00:28:18.907Z,1022.43
2018-11-03T00:29:18.915Z,1022.45
2018-11-03T00:30:18.918Z,1022.49
2018-11-03T00:31:18.862Z,1022.45
2018-11-03T00:32:18.852Z,1022.48
2018-11-03T00:33:18.836Z,1022.51
2018-11-03T00:34:18.851Z,1022.52
2018-11-03T00:35:18.812Z,1022.49
2018-11-03T00:36:18.798Z,1022.48
2018-11-03T00:37:18.872Z,1022.53
2018-11-03T00:38:18.815Z,1022.52
2018-11-03T00:39:18.796Z,1022.49
2018-11-03T00:40:18.796Z,1022.54
2018-11-03T00:41:18.755Z,1022.51
2018-11-03T00:42:18.915Z,1022.52
2018-11-03T00:43:18.733Z,1022.55
2018-11-03T00:44:18.738Z,1022.53
2018-11-03T00:45:18.722Z,1022.60
2018-11-03T00:46:18.725Z,1022.61
2018-11-03T00:47:18.681Z,1022.66
2018-11-03T00:48:18.686Z,1022.68
2018-11-03T00:49:18.677Z,1022.65
2018-11-03T00:50:18.669Z,1022.68
2018-11-03T00:51:18.661Z,1022.65
2018-11-03T00:52:18.628Z,1022.59
2018-11-03T00:53:18.669Z,1022.64
2018-11-03T00:54:18.636Z,1022.62
2018-11-03T00:55:18.599Z,1022.63
2018-11-03T00:56:18.626Z,1022.62
2018-11-03T00:57:18.567Z,1022.62
2018-11-03T00:58:18.573Z,1022.61
2018-11-03T00:59:18.591Z,1022.60
2018-11-03T01:00:18.585Z,1022.61
2018-11-03T01:01:18.545Z,1022.59
2018-11-03T01:02:18.514Z,1022.59
2018-11-03T01:03:18.510Z,1022.63
2018-11-03T01:04:18.528Z,1022.56
2018-11-03T01:05:18.627Z,1022.61
2018-11-03T01:06:18.470Z,1022.63
2018-11-03T01:07:18.523Z,1022.64
2018-11-03T01:08:18.450Z,1022.62
2018-11-03T01:09:18.449Z,1022.63
2018-11-03T01:10:18.479Z,1022.63
2018-11-03T01:11:18.438Z,1022.62
2018-11-03T01:12:18.415Z,1022.67
2018-11-03T01:13:18.393Z,1022.68
2018-11-03T01:14:18.394Z,1022.65
2018-11-03T01:15:18.405Z,1022.63
2018-11-03T01:16:18.373Z,1022.62
2018-11-03T01:17:18.352Z,1022.63
2018-11-03T01:18:18.351Z,1022.59
2018-11-03T01:19:18.338Z,1022.61
2018-11-03T01:20:18.359Z,1022.64
2018-11-03T01:21:18.309Z,1022.63
2018-11-03T01:22:18.294Z,1022.59
2018-11-03T01:23:18.281Z,1022.59
2018-11-03T01:24:18.274Z,1022.59
2018-11-03T01:25:18.291Z,1022.59
2018-11-03T01:26:18.259Z,1022.56
2018-11-03T01:27:18.341Z,1022.56
2018-11-03T01:28:18.241Z,1022.51
2018-11-03T01:29:18.261Z,1022.54
2018-11-03T01:30:18.231Z,1022.50
2018-11-03T01:31:18.202Z,1022.54
2018-11-03T01:32:18.203Z,1022.54
2018-11-03T01:33:18.181Z,1022.49
2018-11-03T01:34:18.194Z,1022.52
2018-11-03T01:35:18.178Z,1022.47
2018-11-03T01:36:18.192Z,1022.50
2018-11-03T01:37:18.136Z,1022.45
2018-11-03T01:38:18.209Z,1022.45
2018-11-03T01:39:18.167Z,1022.44
2018-11-03T01:40:18.117Z,1022.41
2018-11-03T01:41:18.133Z,1022.45
2018-11-03T01:42:18.073Z,1022.46
2018-11-03T01:43:18.062Z,1022.46
2018-11-03T01:44:18.057Z,1022.50
2018-11-03T01:45:18.190Z,1022.52
2018-11-03T01:46:18.038Z,1022.52
2018-11-03T01:47:18.021Z,1022.54
2018-11-03T01:48:18.044Z,1022.57
2018-11-03T01:49:18.011Z,1022.59
2018-11-03T01:50:18.033Z,1022.57
2018-11-03T01:51:18.015Z,1022.61
2018-11-03T01:52:17.966Z,1022.60
2018-11-03T01:53:17.982Z,1022.62
2018-11-03T01:54:17.941Z,1022.58
2018-11-03T01:55:17.972Z,1022.61
2018-11-03T01:56:18.006Z,1022.54
2018-11-03T01:57:17.925Z,1022.54
2018-11-03T01:58:17.898Z,1022.57
2018-11-03T01:59:17.892Z,1022.55
2018-11-03T02:00:18.004Z,1022.56
2018-11-03T02:01:17.900Z,1022.57
2018-11-03T02:02:17.870Z,1022.54
2018-11-03T02:03:17.932Z,1022.58
2018-11-03T02:04:17.841Z,1022.62
2018-11-03T02:05:17.939Z,1022.63
2018-11-03T02:06:17.837Z,1022.59
2018-11-03T02:07:17.821Z,1022.64
2018-11-03T02:08:17.790Z,1022.61
2018-11-03T02:09:17.825Z,1022.58
2018-11-03T02:10:17.770Z,1022.55
2018-11-03T02:11:17.810Z,1022.57
2018-11-03T02:12:17.790Z,1022.61
2018-11-03T02:13:17.745Z,1022.62
2018-11-03T02:14:17.784Z,1022.68
2018-11-03T02:15:17.725Z,1022.64
2018-11-03T02:16:17.747Z,1022.69
2018-11-03T02:17:17.758Z,1022.67
2018-11-03T02:18:17.686Z,1022.62
2018-11-03T02:19:17.708Z,1022.58
2018-11-03T02:20:17.656Z,1022.62
2018-11-03T02:21:17.742Z,1022.57
2018-11-03T02:22:17.694Z,1022.59
2018-11-03T02:23:17.649Z,1022.57
2018-11-03T02:24:17.624Z,1022.59
2018-11-03T02:25:17.608Z,1022.58
2018-11-03T02:26:17.599Z,1022.55
2018-11-03T02:27:17.646Z,1022.55
2018-11-03T02:28:17.584Z,1022.56
2018-11-03T02:29:17.560Z,1022.60
2018-11-03T02:30:17.587Z,1022.61
2018-11-03T02:31:17.548Z,1022.63
2018-11-03T02:32:17.577Z,1022.59
2018-11-03T02:33:17.515Z,1022.52
2018-11-03T02:34:17.505Z,1022.54
2018-11-03T02:35:17.615Z,1022.47
2018-11-03T02:36:17.503Z,1022.51
2018-11-03T02:37:17.537Z,1022.55
2018-11-03T02:38:17.530Z,1022.61
2018-11-03T02:39:17.451Z,1022.57
2018-11-03T02:40:17.480Z,1022.49
2018-11-03T02:41:17.443Z,1022.52
2018-11-03T02:42:17.442Z,1022.51
2018-11-03T02:43:17.409Z,1022.51
2018-11-03T02:44:17.406Z,1022.53
2018-11-03T02:45:17.435Z,1022.53
2018-11-03T02:46:17.404Z,1022.55
2018-11-03T02:47:17.389Z,1022.54
2018-11-03T02:48:17.359Z,1022.56
2018-11-03T02:49:17.342Z,1022.58
2018-11-03T02:50:17.332Z,1022.60
2018-11-03T02:51:17.321Z,1022.57
2018-11-03T02:52:17.389Z,1022.59
2018-11-03T02:53:17.337Z,1022.58
2018-11-03T02:54:17.289Z,1022.56
2018-11-03T02:55:17.290Z,1022.55
2018-11-03T02:56:17.267Z,1022.50
2018-11-03T02:57:17.303Z,1022.57
2018-11-03T02:58:17.297Z,1022.55
2018-11-03T02:59:17.231Z,1022.50
2018-11-03T03:00:17.222Z,1022.58
2018-11-03T03:01:17.228Z,1022.55
2018-11-03T03:02:17.205Z,1022.61
2018-11-03T03:03:17.300Z,1022.61
2018-11-03T03:04:17.202Z,1022.64
2018-11-03T03:05:17.184Z,1022.67
2018-11-03T03:06:17.156Z,1022.66
2018-11-03T03:07:17.302Z,1022.68
2018-11-03T03:08:17.160Z,1022.69
2018-11-03T03:09:17.139Z,1022.65
2018-11-03T03:10:17.125Z,1022.66
2018-11-03T03:11:17.126Z,1022.64
2018-11-03T03:12:17.117Z,1022.63
2018-11-03T03:13:17.120Z,1022.64
2018-11-03T03:14:17.187Z,1022.63
2018-11-03T03:15:17.091Z,1022.64
2018-11-03T03:16:17.076Z,1022.57
2018-11-03T03:17:17.035Z,1022.58
2018-11-03T03:18:17.052Z,1022.57
2018-11-03T03:19:17.028Z,1022.58
2018-11-03T03:20:17.094Z,1022.61
2018-11-03T03:21:16.993Z,1022.68
2018-11-03T03:22:16.995Z,1022.69
2018-11-03T03:23:17.015Z,1022.68
2018-11-03T03:24:16.957Z,1022.72
2018-11-03T03:25:16.952Z,1022.69
2018-11-03T03:26:16.941Z,1022.70
2018-11-03T03:27:17.014Z,1022.63
2018-11-03T03:28:16.935Z,1022.69
2018-11-03T03:29:17.015Z,1022.73
2018-11-03T03:30:16.892Z,1022.68
2018-11-03T03:31:16.920Z,1022.68
2018-11-03T03:32:16.894Z,1022.71
2018-11-03T03:33:16.863Z,1022.74
2018-11-03T03:34:16.913Z,1022.69
2018-11-03T03:35:16.844Z,1022.69
2018-11-03T03:36:16.845Z,1022.78
2018-11-03T03:37:16.825Z,1022.80
2018-11-03T03:38:16.846Z,1022.78
2018-11-03T03:39:17.402Z,1022.73
2018-11-03T03:40:16.792Z,1022.64
2018-11-03T03:41:16.774Z,1022.64
2018-11-03T03:42:16.789Z,1022.68
2018-11-03T03:43:16.799Z,1022.74
2018-11-03T03:44:16.802Z,1022.83
2018-11-03T03:45:16.750Z,1022.86
2018-11-03T03:46:16.728Z,1022.88
2018-11-03T03:47:16.704Z,1022.85
2018-11-03T03:48:16.743Z,1022.80
2018-11-03T03:49:16.709Z,1022.79
2018-11-03T03:50:16.671Z,1022.85
2018-11-03T03:51:16.688Z,1022.81
2018-11-03T03:52:16.652Z,1022.77
2018-11-03T03:53:16.694Z,1022.79
2018-11-03T03:54:16.683Z,1022.75
2018-11-03T03:55:16.626Z,1022.81
2018-11-03T03:56:16.617Z,1022.84
2018-11-03T03:57:16.615Z,1022.87
2018-11-03T03:58:16.644Z,1022.76
2018-11-03T03:59:16.593Z,1022.84
2018-11-03T04:00:16.678Z,1022.86
2018-11-03T04:01:16.561Z,1022.86
2018-11-03T04:02:16.577Z,1022.84
2018-11-03T04:03:16.543Z,1022.88
2018-11-03T04:04:16.652Z,1022.89
2018-11-03T04:05:16.533Z,1022.86
2018-11-03T04:06:16.500Z,1022.88
2018-11-03T04:07:16.522Z,1022.87
2018-11-03T04:08:16.471Z,1022.88
2018-11-03T04:09:16.481Z,1022.90
2018-11-03T04:10:16.481Z,1022.90
2018-11-03T04:11:16.466Z,1022.90
2018-11-03T04:12:16.427Z,1022.87
2018-11-03T04:13:16.454Z,1022.86
2018-11-03T04:14:16.422Z,1022.86
2018-11-03T04:15:16.442Z,1022.88
2018-11-03T04:16:16.399Z,1022.81
2018-11-03T04:17:16.469Z,1022.83
2018-11-03T04:18:16.392Z,1022.76
2018-11-03T04:19:16.365Z,1022.79
2018-11-03T04:20:16.388Z,1022.86
2018-11-03T04:21:16.333Z,1022.83
2018-11-03T04:22:16.364Z,1022.89
2018-11-03T04:23:16.341Z,1022.84
2018-11-03T04:24:16.307Z,1022.84
2018-11-03T04:25:16.328Z,1022.82
2018-11-03T04:26:16.343Z,1022.81
2018-11-03T04:27:16.271Z,1022.90
2018-11-03T04:28:16.283Z,1022.91
2018-11-03T04:29:16.243Z,1022.94
2018-11-03T04:30:16.254Z,1022.93
2018-11-03T04:31:16.281Z,1022.93
2018-11-03T04:32:16.228Z,1022.97
2018-11-03T04:33:16.249Z,1022.96
2018-11-03T04:34:16.206Z,1023.00
2018-11-03T04:35:16.200Z,1022.99
2018-11-03T04:36:16.219Z,1022.95
2018-11-03T04:37:16.161Z,1022.89
2018-11-03T04:38:16.208Z,1022.94
2018-11-03T04:39:16.149Z,1022.94
2018-11-03T04:40:16.126Z,1022.94
2018-11-03T04:41:16.149Z,1022.91
2018-11-03T04:42:16.102Z,1022.90
2018-11-03T04:43:16.144Z,1022.93
2018-11-03T04:44:16.078Z,1022.90
2018-11-03T04:45:16.091Z,1022.83
2018-11-03T04:46:16.086Z,1022.85
2018-11-03T04:47:16.055Z,1022.82
2018-11-03T04:48:16.125Z,1022.81
2018-11-03T04:49:16.063Z,1022.78
2018-11-03T04:50:16.018Z,1022.80
2018-11-03T04:51:16.032Z,1022.76
2018-11-03T04:52:16.058Z,1022.78
2018-11-03T04:53:15.983Z,1022.79
2018-11-03T04:54:15.986Z,1022.80
2018-11-03T04:55:16.029Z,1022.81
2018-11-03T04:56:16.041Z,1022.80
2018-11-03T04:57:15.954Z,1022.66
2018-11-03T04:58:15.926Z,1022.70
2018-11-03T04:59:15.924Z,1022.64
2018-11-03T05:00:15.911Z,1022.69
2018-11-03T05:01:15.912Z,1022.65
2018-11-03T05:02:15.943Z,1022.66
2018-11-03T05:03:15.893Z,1022.66
2018-11-03T05:04:15.869Z,1022.63
2018-11-03T05:05:15.868Z,1022.71
2018-11-03T05:06:15.855Z,1022.70
2018-11-03T05:07:15.859Z,1022.71
2018-11-03T05:08:15.835Z,1022.75
2018-11-03T05:09:15.856Z,1022.73
2018-11-03T05:10:15.823Z,1022.70
2018-11-03T05:11:15.801Z,1022.71
2018-11-03T05:12:15.816Z,1022.65
2018-11-03T05:13:15.772Z,1022.71
2018-11-03T05:14:15.767Z,1022.65
2018-11-03T05:15:15.741Z,1022.68
2018-11-03T05:16:15.747Z,1022.68
2018-11-03T05:17:15.758Z,1022.63
2018-11-03T05:18:15.775Z,1022.62
2018-11-03T05:19:15.703Z,1022.68
2018-11-03T05:20:15.710Z,1022.67
2018-11-03T05:21:15.748Z,1022.66
2018-11-03T05:22:15.706Z,1022.69
2018-11-03T05:23:15.668Z,1022.67
2018-11-03T05:24:15.642Z,1022.62
2018-11-03T05:25:15.669Z,1022.63
2018-11-03T05:26:15.620Z,1022.64
2018-11-03T05:27:15.630Z,1022.64
2018-11-03T05:28:15.771Z,1022.70
2018-11-03T05:29:15.602Z,1022.73
2018-11-03T05:30:15.601Z,1022.68
2018-11-03T05:31:15.712Z,1022.69
2018-11-03T05:32:15.592Z,1022.70
2018-11-03T05:33:15.575Z,1022.67
2018-11-03T05:34:15.556Z,1022.68
2018-11-03T05:35:15.558Z,1022.73
2018-11-03T05:36:15.538Z,1022.74
2018-11-03T05:37:15.506Z,1022.72
2018-11-03T05:38:15.525Z,1022.74
2018-11-03T05:39:15.494Z,1022.77
2018-11-03T05:40:15.470Z,1022.75
2018-11-03T05:41:15.474Z,1022.79
2018-11-03T05:42:15.450Z,1022.81
2018-11-03T05:43:15.491Z,1022.83
2018-11-03T05:44:15.427Z,1022.84
2018-11-03T05:45:15.512Z,1022.86
2018-11-03T05:46:15.470Z,1022.89
2018-11-03T05:47:15.454Z,1022.89
2018-11-03T05:48:15.562Z,1022.90
2018-11-03T05:49:15.401Z,1022.90
2018-11-03T05:50:15.360Z,1022.86
2018-11-03T05:51:15.442Z,1022.84
2018-11-03T05:52:15.356Z,1022.83
2018-11-03T05:53:15.348Z,1022.84
2018-11-03T05:54:15.342Z,1022.82
2018-11-03T05:55:15.335Z,1022.89
2018-11-03T05:56:15.304Z,1022.87
2018-11-03T05:57:15.290Z,1022.84
2018-11-03T05:58:15.385Z,1022.91
2018-11-03T05:59:15.272Z,1022.92
2018-11-03T06:00:15.327Z,1022.92
2018-11-03T06:01:15.242Z,1022.94
2018-11-03T06:02:15.271Z,1022.86
2018-11-03T06:03:15.260Z,1022.86
2018-11-03T06:04:15.204Z,1022.89
2018-11-03T06:05:15.335Z,1022.92
2018-11-03T06:06:15.204Z,1022.93
2018-11-03T06:07:15.178Z,1022.92
2018-11-03T06:08:15.167Z,1022.94
2018-11-03T06:09:15.276Z,1022.97
2018-11-03T06:10:15.141Z,1022.95
2018-11-03T06:11:15.169Z,1023.03
2018-11-03T06:12:15.127Z,1023.02
2018-11-03T06:13:15.136Z,1023.02
2018-11-03T06:14:15.236Z,1023.04
2018-11-03T06:15:15.156Z,1023.03
2018-11-03T06:16:15.090Z,1023.00
2018-11-03T06:17:15.086Z,1023.05
2018-11-03T06:18:15.066Z,1023.08
2018-11-03T06:19:15.072Z,1023.14
2018-11-03T06:20:15.032Z,1023.17
2018-11-03T06:21:15.074Z,1023.18
2018-11-03T06:22:15.074Z,1023.15
2018-11-03T06:23:15.030Z,1023.18
2018-11-03T06:24:15.154Z,1023.20
2018-11-03T06:25:15.117Z,1023.18
2018-11-03T06:26:14.970Z,1023.18
2018-11-03T06:27:15.363Z,1023.18
2018-11-03T06:28:15.110Z,1023.17
2018-11-03T06:29:14.960Z,1023.19
2018-11-03T06:30:14.921Z,1023.19
2018-11-03T06:31:14.914Z,1023.21
2018-11-03T06:32:14.911Z,1023.27
2018-11-03T06:33:14.939Z,1023.26
2018-11-03T06:34:14.928Z,1023.22
2018-11-03T06:35:14.972Z,1023.22
2018-11-03T06:36:14.862Z,1023.23
2018-11-03T06:37:14.859Z,1023.26
2018-11-03T06:38:14.936Z,1023.22
2018-11-03T06:39:14.877Z,1023.24
2018-11-03T06:40:14.812Z,1023.20
2018-11-03T06:41:14.802Z,1023.15
2018-11-03T06:42:14.932Z,1023.20
2018-11-03T06:43:14.801Z,1023.11
2018-11-03T06:44:14.769Z,1023.17
2018-11-03T06:45:14.781Z,1023.17
2018-11-03T06:46:14.818Z,1023.18
2018-11-03T06:47:14.797Z,1023.25
2018-11-03T06:48:14.768Z,1023.22
2018-11-03T06:49:14.716Z,1023.20
2018-11-03T06:50:14.740Z,1023.25
2018-11-03T06:51:14.777Z,1023.23
2018-11-03T06:52:14.743Z,1023.27
2018-11-03T06:53:14.707Z,1023.24
2018-11-03T06:54:14.688Z,1023.27
2018-11-03T06:55:14.756Z,1023.27
2018-11-03T06:56:15.314Z,1023.24
2018-11-03T06:57:14.923Z,1023.24
2018-11-03T06:58:14.666Z,1023.24
2018-11-03T06:59:14.623Z,1023.27
2018-11-03T07:00:14.620Z,1023.25
2018-11-03T07:01:14.583Z,1023.26
2018-11-03T07:02:14.621Z,1023.27
2018-11-03T07:03:14.650Z,1023.29
2018-11-03T07:04:14.573Z,1023.32
2018-11-03T07:05:14.754Z,1023.27
2018-11-03T07:06:14.532Z,1023.29
2018-11-03T07:07:14.614Z,1023.27
2018-11-03T07:08:14.548Z,1023.30
2018-11-03T07:09:14.495Z,1023.32
2018-11-03T07:10:14.679Z,1023.30
2018-11-03T07:11:14.549Z,1023.28
2018-11-03T07:12:14.515Z,1023.30
2018-11-03T07:13:14.591Z,1023.27
2018-11-03T07:14:14.455Z,1023.28
2018-11-03T07:15:14.509Z,1023.29
2018-11-03T07:16:14.435Z,1023.24
2018-11-03T07:17:14.453Z,1023.30
2018-11-03T07:18:14.399Z,1023.28
2018-11-03T07:19:14.458Z,1023.28
2018-11-03T07:20:14.751Z,1023.29
2018-11-03T07:21:14.394Z,1023.28
2018-11-03T07:22:14.422Z,1023.27
2018-11-03T07:23:14.353Z,1023.23
2018-11-03T07:24:14.337Z,1023.22
2018-11-03T07:25:14.388Z,1023.25
2018-11-03T07:26:14.357Z,1023.30
2018-11-03T07:27:14.306Z,1023.33
2018-11-03T07:28:14.289Z,1023.36
2018-11-03T07:29:14.288Z,1023.34
2018-11-03T07:30:14.282Z,1023.38
2018-11-03T07:31:14.340Z,1023.37
2018-11-03T07:32:14.240Z,1023.37
2018-11-03T07:33:14.761Z,1023.39
2018-11-03T07:34:14.241Z,1023.36
2018-11-03T07:35:14.217Z,1023.38
2018-11-03T07:36:14.235Z,1023.36
2018-11-03T07:37:14.260Z,1023.35
2018-11-03T07:38:14.175Z,1023.39
2018-11-03T07:39:14.178Z,1023.41
2018-11-03T07:40:14.160Z,1023.37
2018-11-03T07:41:14.213Z,1023.41
2018-11-03T07:42:14.141Z,1023.42
2018-11-03T07:43:14.179Z,1023.38
2018-11-03T07:44:14.110Z,1023.39
2018-11-03T07:45:14.131Z,1023.34
2018-11-03T07:46:14.171Z,1023.35
2018-11-03T07:47:14.083Z,1023.33
2018-11-03T07:48:14.109Z,1023.32
2018-11-03T07:49:14.263Z,1023.29
2018-11-03T07:50:14.050Z,1023.34
2018-11-03T07:51:14.064Z,1023.40
2018-11-03T07:52:14.032Z,1023.36
2018-11-03T07:53:14.127Z,1023.39
2018-11-03T07:54:14.006Z,1023.39
2018-11-03T07:55:14.742Z,1023.36
2018-11-03T07:56:14.074Z,1023.33
2018-11-03T07:57:13.974Z,1023.38
2018-11-03T07:58:13.973Z,1023.36
2018-11-03T07:59:13.953Z,1023.37
2018-11-03T08:00:13.964Z,1023.38
2018-11-03T08:01:13.925Z,1023.40
2018-11-03T08:02:14.017Z,1023.32
2018-11-03T08:03:13.903Z,1023.35
2018-11-03T08:04:13.925Z,1023.34
2018-11-03T08:05:13.906Z,1023.36
2018-11-03T08:06:13.880Z,1023.36
2018-11-03T08:07:13.903Z,1023.33
2018-11-03T08:08:13.862Z,1023.32
2018-11-03T08:09:14.858Z,1023.32
2018-11-03T08:10:13.875Z,1023.30
2018-11-03T08:11:13.872Z,1023.27
2018-11-03T08:12:13.836Z,1023.30
2018-11-03T08:13:13.925Z,1023.27
2018-11-03T08:14:13.815Z,1023.30
2018-11-03T08:15:14.317Z,1023.29
2018-11-03T08:16:13.766Z,1023.28
2018-11-03T08:17:13.780Z,1023.26
2018-11-03T08:18:13.757Z,1023.23
2018-11-03T08:19:13.740Z,1023.20
2018-11-03T08:20:13.727Z,1023.16
2018-11-03T08:21:13.711Z,1023.17
2018-11-03T08:22:13.718Z,1023.14
2018-11-03T08:23:13.739Z,1023.18
2018-11-03T08:24:13.679Z,1023.12
2018-11-03T08:25:13.662Z,1023.09
2018-11-03T08:26:13.663Z,1023.05
2018-11-03T08:27:13.672Z,1023.10
2018-11-03T08:28:13.633Z,1023.08
2018-11-03T08:29:13.648Z,1023.10
2018-11-03T08:30:13.623Z,1023.10
2018-11-03T08:31:13.606Z,1023.10
2018-11-03T08:32:13.615Z,1023.06
2018-11-03T08:33:13.608Z,1023.06
2018-11-03T08:34:13.564Z,1023.04
2018-11-03T08:35:13.561Z,1023.01
2018-11-03T08:36:13.556Z,1022.99
2018-11-03T08:37:13.750Z,1023.00
2018-11-03T08:38:13.591Z,1023.02
2018-11-03T08:39:13.536Z,1023.07
2018-11-03T08:40:13.577Z,1023.12
2018-11-03T08:41:13.491Z,1023.11
2018-11-03T08:42:14.235Z,1023.16
2018-11-03T08:43:13.600Z,1023.12
2018-11-03T08:44:13.460Z,1023.10
2018-11-03T08:45:13.453Z,1023.14
2018-11-03T08:46:13.534Z,1023.13
2018-11-03T08:47:13.494Z,1023.20
2018-11-03T08:48:13.594Z,1023.19
2018-11-03T08:49:13.412Z,1023.16
2018-11-03T08:50:13.423Z,1023.15
2018-11-03T08:51:13.407Z,1023.17
2018-11-03T08:52:13.383Z,1023.17
2018-11-03T08:53:13.446Z,1023.12
2018-11-03T08:54:13.378Z,1023.14
2018-11-03T08:55:13.343Z,1023.17
2018-11-03T08:56:13.323Z,1023.10
2018-11-03T08:57:13.318Z,1023.05
2018-11-03T08:58:13.333Z,1023.04
2018-11-03T08:59:13.302Z,1023.04
2018-11-03T09:00:13.385Z,1022.95
2018-11-03T09:01:13.286Z,1022.90
2018-11-03T09:02:13.309Z,1022.93
2018-11-03T09:03:13.273Z,1022.87
2018-11-03T09:04:13.234Z,1022.88
2018-11-03T09:05:13.268Z,1022.86
2018-11-03T09:06:13.231Z,1022.90
2018-11-03T09:07:13.413Z,1022.97
2018-11-03T09:08:13.232Z,1022.88
2018-11-03T09:09:13.332Z,1022.90
2018-11-03T09:10:13.189Z,1022.82
2018-11-03T09:11:13.187Z,1022.89
2018-11-03T09:12:13.246Z,1022.84
2018-11-03T09:13:13.291Z,1022.83
2018-11-03T09:14:13.147Z,1022.86
2018-11-03T09:15:13.338Z,1022.86
2018-11-03T09:16:13.155Z,1022.84
2018-11-03T09:17:13.102Z,1022.85
2018-11-03T09:18:13.110Z,1022.78
2018-11-03T09:19:13.077Z,1022.78
2018-11-03T09:20:13.059Z,1022.76
2018-11-03T09:21:13.049Z,1022.75
2018-11-03T09:22:13.042Z,1022.77
2018-11-03T09:23:13.063Z,1022.70
2018-11-03T09:24:13.061Z,1022.77
2018-11-03T09:25:13.035Z,1022.67
2018-11-03T09:26:13.022Z,1022.71
2018-11-03T09:27:13.014Z,1022.71
2018-11-03T09:28:12.978Z,1022.73
2018-11-03T09:29:13.039Z,1022.71
2018-11-03T09:30:13.054Z,1022.72
2018-11-03T09:31:13.723Z,1022.73
2018-11-03T09:32:12.950Z,1022.73
2018-11-03T09:33:12.924Z,1022.74
2018-11-03T09:34:12.988Z,1022.77
2018-11-03T09:35:12.965Z,1022.75
2018-11-03T09:36:13.258Z,1022.75
2018-11-03T09:37:13.723Z,1022.76
2018-11-03T09:38:12.872Z,1022.76
2018-11-03T09:39:12.948Z,1022.76
2018-11-03T09:40:13.307Z,1022.79
2018-11-03T09:41:13.278Z,1022.77
2018-11-03T09:42:12.817Z,1022.80
2018-11-03T09:43:12.877Z,1022.77
2018-11-03T09:44:12.823Z,1022.80
2018-11-03T09:45:12.884Z,1022.76
2018-11-03T09:46:12.776Z,1022.78
2018-11-03T09:47:12.778Z,1022.68
2018-11-03T09:48:12.759Z,1022.66
2018-11-03T09:49:12.958Z,1022.61
2018-11-03T09:50:12.744Z,1022.59
2018-11-03T09:51:12.766Z,1022.56
2018-11-03T09:52:12.803Z,1022.51
2018-11-03T09:53:12.758Z,1022.52
2018-11-03T09:54:12.731Z,1022.51
2018-11-03T09:55:12.682Z,1022.50
2018-11-03T09:56:12.670Z,1022.49
2018-11-03T09:57:12.655Z,1022.48
2018-11-03T09:58:12.663Z,1022.48
2018-11-03T09:59:12.643Z,1022.48
2018-11-03T10:00:12.661Z,1022.42
2018-11-03T10:01:12.624Z,1022.48
2018-11-03T10:02:12.600Z,1022.53
2018-11-03T10:03:12.613Z,1022.47
2018-11-03T10:04:12.622Z,1022.45
2018-11-03T10:05:12.783Z,1022.48
2018-11-03T10:06:12.723Z,1022.52
2018-11-03T10:07:12.541Z,1022.47
2018-11-03T10:08:12.577Z,1022.53
2018-11-03T10:09:12.596Z,1022.48
2018-11-03T10:10:12.559Z,1022.52
2018-11-03T10:11:12.656Z,1022.49
2018-11-03T10:12:12.487Z,1022.48
2018-11-03T10:13:12.478Z,1022.51
2018-11-03T10:14:12.509Z,1022.53
2018-11-03T10:15:12.527Z,1022.49
2018-11-03T10:16:12.569Z,1022.40
2018-11-03T10:17:12.446Z,1022.46
2018-11-03T10:18:12.440Z,1022.42
2018-11-03T10:19:12.421Z,1022.45
2018-11-03T10:20:12.450Z,1022.45
2018-11-03T10:21:12.403Z,1022.43
2018-11-03T10:22:12.460Z,1022.31
2018-11-03T10:23:12.369Z,1022.29
2018-11-03T10:24:12.364Z,1022.24
2018-11-03T10:25:12.389Z,1022.19
2018-11-03T10:26:12.331Z,1022.21
2018-11-03T10:27:12.357Z,1022.19
2018-11-03T10:28:12.343Z,1022.22
2018-11-03T10:29:12.298Z,1022.25
2018-11-03T10:30:12.321Z,1022.23
2018-11-03T10:31:12.283Z,1022.20
2018-11-03T10:32:12.280Z,1022.17
2018-11-03T10:33:12.260Z,1022.12
2018-11-03T10:34:12.255Z,1022.05
2018-11-03T10:35:12.251Z,1022.08
2018-11-03T10:36:12.218Z,1022.09
2018-11-03T10:37:12.205Z,1022.08
2018-11-03T10:38:12.202Z,1022.05
2018-11-03T10:39:12.188Z,1022.03
2018-11-03T10:40:12.179Z,1022.00
2018-11-03T10:41:12.188Z,1021.94
2018-11-03T10:42:12.169Z,1021.93
2018-11-03T10:43:12.137Z,1021.92
2018-11-03T10:44:12.129Z,1021.92
2018-11-03T10:45:12.138Z,1021.93
2018-11-03T10:46:12.207Z,1021.95
2018-11-03T10:47:12.112Z,1021.91
2018-11-03T10:48:12.088Z,1021.88
2018-11-03T10:49:12.072Z,1021.86
2018-11-03T10:50:12.064Z,1021.89
2018-11-03T10:51:12.124Z,1021.86
2018-11-03T10:52:12.036Z,1021.81
2018-11-03T10:53:12.029Z,1021.84
2018-11-03T10:54:12.031Z,1021.84
2018-11-03T10:55:12.018Z,1021.85
2018-11-03T10:56:12.017Z,1021.81
2018-11-03T10:57:11.996Z,1021.85
2018-11-03T10:58:12.000Z,1021.86
2018-11-03T10:59:11.978Z,1021.86
2018-11-03T11:00:11.949Z,1021.86
2018-11-03T11:01:11.978Z,1021.79
2018-11-03T11:02:11.934Z,1021.77
2018-11-03T11:03:11.924Z,1021.73
2018-11-03T11:04:11.930Z,1021.66
2018-11-03T11:05:11.892Z,1021.71
2018-11-03T11:06:11.941Z,1021.73
2018-11-03T11:07:11.869Z,1021.66
2018-11-03T11:08:11.864Z,1021.67
2018-11-03T11:09:11.879Z,1021.74
2018-11-03T11:10:11.841Z,1021.72
2018-11-03T11:11:11.830Z,1021.73
2018-11-03T11:12:11.841Z,1021.71
2018-11-03T11:13:11.811Z,1021.71
2018-11-03T11:14:11.868Z,1021.74
2018-11-03T11:15:11.789Z,1021.57
2018-11-03T11:16:11.793Z,1021.55
2018-11-03T11:17:11.807Z,1021.49
2018-11-03T11:18:11.759Z,1021.48
2018-11-03T11:19:11.749Z,1021.51
2018-11-03T11:20:11.842Z,1021.43
2018-11-03T11:21:11.723Z,1021.45
2018-11-03T11:22:11.737Z,1021.43
2018-11-03T11:23:11.710Z,1021.43
2018-11-03T11:24:11.786Z,1021.36
2018-11-03T11:25:11.784Z,1021.35
2018-11-03T11:26:11.662Z,1021.35
2018-11-03T11:27:11.679Z,1021.40
2018-11-03T11:28:11.650Z,1021.35
2018-11-03T11:29:11.651Z,1021.30
2018-11-03T11:30:11.694Z,1021.29
2018-11-03T11:31:11.655Z,1021.28
2018-11-03T11:32:11.622Z,1021.19
2018-11-03T11:33:11.580Z,1021.22
2018-11-03T11:34:11.603Z,1021.16
2018-11-03T11:35:11.561Z,1021.12
2018-11-03T11:36:11.561Z,1021.12
2018-11-03T11:37:11.663Z,1021.08
2018-11-03T11:38:11.624Z,1021.10
2018-11-03T11:39:11.515Z,1021.05
2018-11-03T11:40:11.503Z,1021.12
2018-11-03T11:41:11.495Z,1021.09
2018-11-03T11:42:11.513Z,1021.03
2018-11-03T11:43:11.561Z,1021.04
2018-11-03T11:44:11.476Z,1021.11
2018-11-03T11:45:11.452Z,1021.06
2018-11-03T11:46:11.437Z,1021.07
2018-11-03T11:47:11.438Z,1021.05
2018-11-03T11:48:11.518Z,1021.00
2018-11-03T11:49:11.404Z,1020.98
2018-11-03T11:50:11.437Z,1020.95
2018-11-03T11:51:11.385Z,1021.00
2018-11-03T11:52:11.369Z,1021.00
2018-11-03T11:53:11.411Z,1020.97
2018-11-03T11:54:11.413Z,1020.95
2018-11-03T11:55:11.336Z,1020.98
2018-11-03T11:56:11.346Z,1020.98
2018-11-03T11:57:11.322Z,1020.96
2018-11-03T11:58:11.339Z,1020.91
2018-11-03T11:59:11.301Z,1020.91
2018-11-03T12:00:11.284Z,1020.88
2018-11-03T12:01:11.314Z,1020.82
2018-11-03T12:02:11.296Z,1020.87
2018-11-03T12:03:11.262Z,1020.85
2018-11-03T12:04:11.257Z,1020.79
2018-11-03T12:05:11.222Z,1020.84